sensor_id;sensor_type;location;lat;lon;timestamp;P1;durP1;ratioP1;P2;durP2;ratioP2
68176;SDS011;56478;50.982;7.032;2023-10-09T00:00:32;17.75;;;11.00;;
68176;SDS011;56478;50.982;7.032;2023-10-09T00:03:19;21.58;;;11.45;;
68176;SDS011;56478;50.982;7.032;2023-10-09T00:05:48;22.70;;;11.25;;
68176;SDS011;56478;50.982;7.032;2023-10-09T00:08:18;21.98;;;11.15;;
68176;SDS011;56478;50.982;7.032;2023-10-09T00:11:04;23.48;;;10.75;;
68176;SDS011;56478;50.982;7.032;2023-10-09T00:13:42;20.00;;;10.50;;
68176;SDS011;56478;50.982;7.032;2023-10-09T00:16:23;22.92;;;11.00;;
68176;SDS011;56478;50.982;7.032;2023-10-09T00:19:00;19.17;;;10.57;;
68176;SDS011;56478;50.982;7.032;2023-10-09T00:21:41;15.88;;;10.32;;
68176;SDS011;56478;50.982;7.032;2023-10-09T00:24:09;21.85;;;10.93;;
68176;SDS011;56478;50.982;7.032;2023-10-09T00:26:49;23.65;;;10.80;;
68176;SDS011;56478;50.982;7.032;2023-10-09T00:29:17;16.92;;;10.40;;
68176;SDS011;56478;50.982;7.032;2023-10-09T00:31:49;16.48;;;9.60;;
68176;SDS011;56478;50.982;7.032;2023-10-09T00:34:17;17.00;;;10.17;;
68176;SDS011;56478;50.982;7.032;2023-10-09T00:36:46;20.33;;;10.35;;
68176;SDS011;56478;50.982;7.032;2023-10-09T00:39:18;15.98;;;10.02;;
68176;SDS011;56478;50.982;7.032;2023-10-09T00:42:08;15.85;;;9.50;;
68176;SDS011;56478;50.982;7.032;2023-10-09T00:44:38;15.07;;;9.35;;
68176;SDS011;56478;50.982;7.032;2023-10-09T00:47:13;16.73;;;9.07;;
68176;SDS011;56478;50.982;7.032;2023-10-09T00:49:57;17.95;;;9.23;;
68176;SDS011;56478;50.982;7.032;2023-10-09T00:52:30;16.60;;;9.20;;
68176;SDS011;56478;50.982;7.032;2023-10-09T00:55:01;14.48;;;9.32;;
68176;SDS011;56478;50.982;7.032;2023-10-09T00:57:50;15.38;;;9.02;;
68176;SDS011;56478;50.982;7.032;2023-10-09T01:00:24;16.23;;;9.40;;
68176;SDS011;56478;50.982;7.032;2023-10-09T01:03:03;16.50;;;9.48;;
68176;SDS011;56478;50.982;7.032;2023-10-09T01:05:41;16.30;;;9.20;;
68176;SDS011;56478;50.982;7.032;2023-10-09T01:08:16;19.70;;;10.05;;
68176;SDS011;56478;50.982;7.032;2023-10-09T01:10:50;15.57;;;9.00;;
68176;SDS011;56478;50.982;7.032;2023-10-09T01:13:22;16.85;;;9.57;;
68176;SDS011;56478;50.982;7.032;2023-10-09T01:15:59;13.82;;;8.90;;
68176;SDS011;56478;50.982;7.032;2023-10-09T01:18:30;18.92;;;8.90;;
68176;SDS011;56478;50.982;7.032;2023-10-09T01:21:01;16.42;;;8.80;;
68176;SDS011;56478;50.982;7.032;2023-10-09T01:23:28;15.68;;;9.60;;
68176;SDS011;56478;50.982;7.032;2023-10-09T01:25:55;15.73;;;9.32;;
68176;SDS011;56478;50.982;7.032;2023-10-09T01:28:20;18.58;;;8.73;;
68176;SDS011;56478;50.982;7.032;2023-10-09T01:30:46;14.05;;;8.32;;
68176;SDS011;56478;50.982;7.032;2023-10-09T01:33:13;18.40;;;8.52;;
68176;SDS011;56478;50.982;7.032;2023-10-09T01:35:47;16.27;;;9.13;;
68176;SDS011;56478;50.982;7.032;2023-10-09T01:38:15;12.00;;;8.68;;
68176;SDS011;56478;50.982;7.032;2023-10-09T01:40:41;16.33;;;8.57;;
68176;SDS011;56478;50.982;7.032;2023-10-09T01:43:08;11.10;;;8.40;;
68176;SDS011;56478;50.982;7.032;2023-10-09T01:45:35;15.52;;;8.60;;
68176;SDS011;56478;50.982;7.032;2023-10-09T01:48:07;13.25;;;8.57;;
68176;SDS011;56478;50.982;7.032;2023-10-09T01:50:33;14.35;;;8.23;;
68176;SDS011;56478;50.982;7.032;2023-10-09T01:53:01;14.23;;;8.73;;
68176;SDS011;56478;50.982;7.032;2023-10-09T01:55:29;14.70;;;8.48;;
68176;SDS011;56478;50.982;7.032;2023-10-09T01:57:55;15.10;;;8.02;;
68176;SDS011;56478;50.982;7.032;2023-10-09T02:00:31;13.98;;;8.55;;
68176;SDS011;56478;50.982;7.032;2023-10-09T02:03:08;11.50;;;7.93;;
68176;SDS011;56478;50.982;7.032;2023-10-09T02:08:03;11.85;;;7.70;;
68176;SDS011;56478;50.982;7.032;2023-10-09T02:10:30;16.25;;;8.07;;
68176;SDS011;56478;50.982;7.032;2023-10-09T02:12:56;12.35;;;7.63;;
68176;SDS011;56478;50.982;7.032;2023-10-09T02:15:31;11.40;;;7.22;;
68176;SDS011;56478;50.982;7.032;2023-10-09T02:18:19;11.63;;;7.80;;
68176;SDS011;56478;50.982;7.032;2023-10-09T02:23:37;13.00;;;7.18;;
68176;SDS011;56478;50.982;7.032;2023-10-09T02:26:10;9.85;;;7.45;;
68176;SDS011;56478;50.982;7.032;2023-10-09T02:28:57;10.00;;;7.43;;
68176;SDS011;56478;50.982;7.032;2023-10-09T02:31:29;13.93;;;7.45;;
68176;SDS011;56478;50.982;7.032;2023-10-09T02:34:08;13.93;;;7.32;;
68176;SDS011;56478;50.982;7.032;2023-10-09T02:36:35;12.20;;;7.05;;
68176;SDS011;56478;50.982;7.032;2023-10-09T02:39:09;10.07;;;6.88;;
68176;SDS011;56478;50.982;7.032;2023-10-09T02:41:54;11.48;;;7.60;;
68176;SDS011;56478;50.982;7.032;2023-10-09T02:44:25;11.90;;;7.13;;
68176;SDS011;56478;50.982;7.032;2023-10-09T02:46:51;12.80;;;7.50;;
68176;SDS011;56478;50.982;7.032;2023-10-09T02:49:23;11.25;;;6.85;;
68176;SDS011;56478;50.982;7.032;2023-10-09T02:51:49;10.02;;;6.22;;
68176;SDS011;56478;50.982;7.032;2023-10-09T02:54:18;10.77;;;7.03;;
68176;SDS011;56478;50.982;7.032;2023-10-09T02:56:49;11.40;;;6.97;;
68176;SDS011;56478;50.982;7.032;2023-10-09T02:59:31;21.55;;;7.85;;
68176;SDS011;56478;50.982;7.032;2023-10-09T03:01:57;10.85;;;7.18;;
68176;SDS011;56478;50.982;7.032;2023-10-09T03:04:27;13.63;;;7.63;;
68176;SDS011;56478;50.982;7.032;2023-10-09T03:06:57;12.07;;;7.25;;
68176;SDS011;56478;50.982;7.032;2023-10-09T03:09:23;14.77;;;7.00;;
68176;SDS011;56478;50.982;7.032;2023-10-09T03:11:53;11.63;;;6.85;;
68176;SDS011;56478;50.982;7.032;2023-10-09T03:14:21;10.35;;;7.20;;
68176;SDS011;56478;50.982;7.032;2023-10-09T03:16:50;12.77;;;7.15;;
68176;SDS011;56478;50.982;7.032;2023-10-09T03:19:15;13.48;;;7.15;;
68176;SDS011;56478;50.982;7.032;2023-10-09T03:21:41;12.05;;;6.93;;
68176;SDS011;56478;50.982;7.032;2023-10-09T03:24:07;10.18;;;6.90;;
68176;SDS011;56478;50.982;7.032;2023-10-09T03:26:33;12.38;;;7.15;;
68176;SDS011;56478;50.982;7.032;2023-10-09T03:28:59;9.50;;;6.63;;
68176;SDS011;56478;50.982;7.032;2023-10-09T03:31:35;10.90;;;6.75;;
68176;SDS011;56478;50.982;7.032;2023-10-09T03:34:02;13.73;;;7.03;;
68176;SDS011;56478;50.982;7.032;2023-10-09T03:36:28;13.52;;;7.07;;
68176;SDS011;56478;50.982;7.032;2023-10-09T03:38:59;11.40;;;6.63;;
68176;SDS011;56478;50.982;7.032;2023-10-09T03:41:25;14.82;;;7.45;;
68176;SDS011;56478;50.982;7.032;2023-10-09T03:43:54;11.73;;;6.78;;
68176;SDS011;56478;50.982;7.032;2023-10-09T03:46:20;12.43;;;6.50;;
68176;SDS011;56478;50.982;7.032;2023-10-09T03:48:51;9.50;;;6.55;;
68176;SDS011;56478;50.982;7.032;2023-10-09T03:51:18;10.00;;;6.18;;
68176;SDS011;56478;50.982;7.032;2023-10-09T03:53:47;10.95;;;6.85;;
68176;SDS011;56478;50.982;7.032;2023-10-09T03:56:14;13.50;;;6.50;;
68176;SDS011;56478;50.982;7.032;2023-10-09T04:01:14;11.95;;;6.60;;
68176;SDS011;56478;50.982;7.032;2023-10-09T04:03:53;9.90;;;6.70;;
68176;SDS011;56478;50.982;7.032;2023-10-09T04:06:30;9.23;;;6.43;;
68176;SDS011;56478;50.982;7.032;2023-10-09T04:09:03;12.38;;;6.82;;
68176;SDS011;56478;50.982;7.032;2023-10-09T04:11:56;12.88;;;6.45;;
68176;SDS011;56478;50.982;7.032;2023-10-09T04:14:42;11.00;;;6.82;;
68176;SDS011;56478;50.982;7.032;2023-10-09T04:17:33;9.43;;;6.50;;
68176;SDS011;56478;50.982;7.032;2023-10-09T04:20:00;10.50;;;7.20;;
68176;SDS011;56478;50.982;7.032;2023-10-09T04:22:47;11.55;;;6.85;;
68176;SDS011;56478;50.982;7.032;2023-10-09T04:25:16;11.77;;;6.70;;
68176;SDS011;56478;50.982;7.032;2023-10-09T04:27:57;13.10;;;6.80;;
68176;SDS011;56478;50.982;7.032;2023-10-09T04:30:42;10.45;;;6.57;;
68176;SDS011;56478;50.982;7.032;2023-10-09T04:33:08;9.27;;;6.30;;
68176;SDS011;56478;50.982;7.032;2023-10-09T04:35:54;9.88;;;6.82;;
68176;SDS011;56478;50.982;7.032;2023-10-09T04:38:40;11.13;;;6.82;;
68176;SDS011;56478;50.982;7.032;2023-10-09T04:41:23;11.25;;;6.32;;
68176;SDS011;56478;50.982;7.032;2023-10-09T04:44:16;11.35;;;6.60;;
68176;SDS011;56478;50.982;7.032;2023-10-09T04:46:54;9.95;;;6.82;;
68176;SDS011;56478;50.982;7.032;2023-10-09T04:49:36;11.35;;;6.95;;
68176;SDS011;56478;50.982;7.032;2023-10-09T04:52:29;13.30;;;7.40;;
68176;SDS011;56478;50.982;7.032;2023-10-09T04:54:55;11.00;;;6.57;;
68176;SDS011;56478;50.982;7.032;2023-10-09T04:57:42;9.50;;;6.40;;
68176;SDS011;56478;50.982;7.032;2023-10-09T05:02:51;9.98;;;6.57;;
68176;SDS011;56478;50.982;7.032;2023-10-09T05:05:22;9.68;;;6.93;;
68176;SDS011;56478;50.982;7.032;2023-10-09T05:08:12;12.95;;;6.75;;
68176;SDS011;56478;50.982;7.032;2023-10-09T05:13:25;13.13;;;6.63;;
68176;SDS011;56478;50.982;7.032;2023-10-09T05:18:29;11.30;;;6.75;;
68176;SDS011;56478;50.982;7.032;2023-10-09T05:21:02;12.70;;;7.10;;
68176;SDS011;56478;50.982;7.032;2023-10-09T05:23:46;9.82;;;6.50;;
68176;SDS011;56478;50.982;7.032;2023-10-09T05:26:35;10.15;;;6.40;;
68176;SDS011;56478;50.982;7.032;2023-10-09T05:29:26;13.30;;;6.60;;
68176;SDS011;56478;50.982;7.032;2023-10-09T05:31:58;9.32;;;6.50;;
68176;SDS011;56478;50.982;7.032;2023-10-09T05:34:33;11.02;;;7.00;;
68176;SDS011;56478;50.982;7.032;2023-10-09T05:37:00;10.35;;;6.95;;
68176;SDS011;56478;50.982;7.032;2023-10-09T05:39:48;9.80;;;6.60;;
68176;SDS011;56478;50.982;7.032;2023-10-09T05:42:44;11.05;;;6.82;;
68176;SDS011;56478;50.982;7.032;2023-10-09T05:45:11;11.20;;;6.95;;
68176;SDS011;56478;50.982;7.032;2023-10-09T05:47:50;11.63;;;6.57;;
68176;SDS011;56478;50.982;7.032;2023-10-09T05:50:23;12.57;;;6.85;;
68176;SDS011;56478;50.982;7.032;2023-10-09T05:52:59;13.43;;;6.93;;
68176;SDS011;56478;50.982;7.032;2023-10-09T05:55:31;10.07;;;7.03;;
68176;SDS011;56478;50.982;7.032;2023-10-09T05:58:15;12.10;;;7.00;;
68176;SDS011;56478;50.982;7.032;2023-10-09T06:01:00;14.68;;;7.75;;
68176;SDS011;56478;50.982;7.032;2023-10-09T06:03:44;10.55;;;6.80;;
68176;SDS011;56478;50.982;7.032;2023-10-09T06:06:29;12.95;;;7.13;;
68176;SDS011;56478;50.982;7.032;2023-10-09T06:09:04;10.32;;;7.00;;
68176;SDS011;56478;50.982;7.032;2023-10-09T06:11:43;9.02;;;6.72;;
68176;SDS011;56478;50.982;7.032;2023-10-09T06:14:20;9.55;;;6.90;;
68176;SDS011;56478;50.982;7.032;2023-10-09T06:16:51;12.60;;;6.78;;
68176;SDS011;56478;50.982;7.032;2023-10-09T06:19:47;11.98;;;6.43;;
68176;SDS011;56478;50.982;7.032;2023-10-09T06:22:14;13.02;;;7.05;;
68176;SDS011;56478;50.982;7.032;2023-10-09T06:24:58;12.90;;;6.60;;
68176;SDS011;56478;50.982;7.032;2023-10-09T06:27:34;8.85;;;7.00;;
68176;SDS011;56478;50.982;7.032;2023-10-09T06:30:00;11.60;;;7.10;;
68176;SDS011;56478;50.982;7.032;2023-10-09T06:32:44;13.65;;;6.95;;
68176;SDS011;56478;50.982;7.032;2023-10-09T06:35:36;9.30;;;6.50;;
68176;SDS011;56478;50.982;7.032;2023-10-09T06:38:02;14.27;;;6.55;;
68176;SDS011;56478;50.982;7.032;2023-10-09T06:40:31;11.15;;;6.65;;
68176;SDS011;56478;50.982;7.032;2023-10-09T06:43:18;14.20;;;7.50;;
68176;SDS011;56478;50.982;7.032;2023-10-09T06:45:48;14.25;;;7.05;;
68176;SDS011;56478;50.982;7.032;2023-10-09T06:48:26;16.90;;;7.78;;
68176;SDS011;56478;50.982;7.032;2023-10-09T06:51:11;11.60;;;7.18;;
68176;SDS011;56478;50.982;7.032;2023-10-09T06:53:41;9.55;;;7.07;;
68176;SDS011;56478;50.982;7.032;2023-10-09T06:56:21;12.53;;;7.17;;
68176;SDS011;56478;50.982;7.032;2023-10-09T06:58:50;11.77;;;7.07;;
68176;SDS011;56478;50.982;7.032;2023-10-09T07:01:20;11.13;;;7.38;;
68176;SDS011;56478;50.982;7.032;2023-10-09T07:04:02;14.63;;;7.13;;
68176;SDS011;56478;50.982;7.032;2023-10-09T07:06:47;10.63;;;6.55;;
68176;SDS011;56478;50.982;7.032;2023-10-09T07:09:22;14.73;;;7.10;;
68176;SDS011;56478;50.982;7.032;2023-10-09T07:14:15;11.77;;;6.90;;
68176;SDS011;56478;50.982;7.032;2023-10-09T07:22:16;10.63;;;6.55;;
68176;SDS011;56478;50.982;7.032;2023-10-09T07:24:45;10.27;;;6.75;;
68176;SDS011;56478;50.982;7.032;2023-10-09T07:33:01;11.35;;;7.03;;
68176;SDS011;56478;50.982;7.032;2023-10-09T07:35:46;11.80;;;6.97;;
68176;SDS011;56478;50.982;7.032;2023-10-09T07:38:14;12.45;;;7.07;;
68176;SDS011;56478;50.982;7.032;2023-10-09T07:41:01;14.17;;;6.77;;
68176;SDS011;56478;50.982;7.032;2023-10-09T07:43:28;10.63;;;6.47;;
68176;SDS011;56478;50.982;7.032;2023-10-09T07:46:03;9.45;;;6.53;;
68176;SDS011;56478;50.982;7.032;2023-10-09T07:48:29;10.43;;;6.47;;
68176;SDS011;56478;50.982;7.032;2023-10-09T07:51:11;9.10;;;6.40;;
68176;SDS011;56478;50.982;7.032;2023-10-09T07:53:37;12.40;;;6.03;;
68176;SDS011;56478;50.982;7.032;2023-10-09T07:56:09;13.98;;;6.78;;
68176;SDS011;56478;50.982;7.032;2023-10-09T07:58:44;11.25;;;6.10;;
68176;SDS011;56478;50.982;7.032;2023-10-09T08:03:48;13.77;;;7.22;;
68176;SDS011;56478;50.982;7.032;2023-10-09T08:06:25;12.80;;;6.78;;
68176;SDS011;56478;50.982;7.032;2023-10-09T08:09:09;9.85;;;7.30;;
68176;SDS011;56478;50.982;7.032;2023-10-09T08:11:39;12.82;;;7.28;;
68176;SDS011;56478;50.982;7.032;2023-10-09T08:14:07;12.52;;;6.90;;
68176;SDS011;56478;50.982;7.032;2023-10-09T08:16:53;12.25;;;7.05;;
68176;SDS011;56478;50.982;7.032;2023-10-09T08:19:57;10.40;;;6.68;;
68176;SDS011;56478;50.982;7.032;2023-10-09T08:24:55;10.90;;;6.90;;
68176;SDS011;56478;50.982;7.032;2023-10-09T08:27:25;11.65;;;7.22;;
68176;SDS011;56478;50.982;7.032;2023-10-09T08:30:01;15.43;;;7.55;;
68176;SDS011;56478;50.982;7.032;2023-10-09T08:32:43;16.08;;;7.68;;
68176;SDS011;56478;50.982;7.032;2023-10-09T08:35:26;11.25;;;7.22;;
68176;SDS011;56478;50.982;7.032;2023-10-09T08:37:56;11.45;;;6.57;;
68176;SDS011;56478;50.982;7.032;2023-10-09T08:40:42;9.27;;;6.28;;
68176;SDS011;56478;50.982;7.032;2023-10-09T08:48:14;12.38;;;6.85;;
68176;SDS011;56478;50.982;7.032;2023-10-09T08:50:46;14.45;;;7.00;;
68176;SDS011;56478;50.982;7.032;2023-10-09T08:53:14;13.40;;;6.82;;
68176;SDS011;56478;50.982;7.032;2023-10-09T08:55:41;10.38;;;6.35;;
68176;SDS011;56478;50.982;7.032;2023-10-09T08:58:09;14.32;;;6.00;;
68176;SDS011;56478;50.982;7.032;2023-10-09T09:00:55;9.30;;;6.13;;
68176;SDS011;56478;50.982;7.032;2023-10-09T09:03:23;13.73;;;6.47;;
68176;SDS011;56478;50.982;7.032;2023-10-09T09:06:00;11.48;;;6.20;;
68176;SDS011;56478;50.982;7.032;2023-10-09T09:08:27;8.85;;;5.82;;
68176;SDS011;56478;50.982;7.032;2023-10-09T09:11:01;11.60;;;5.93;;
68176;SDS011;56478;50.982;7.032;2023-10-09T09:13:37;9.52;;;5.90;;
68176;SDS011;56478;50.982;7.032;2023-10-09T09:16:16;8.80;;;5.45;;
68176;SDS011;56478;50.982;7.032;2023-10-09T09:32:15;15.32;;;6.85;;
68176;SDS011;56478;50.982;7.032;2023-10-09T09:38:01;11.05;;;6.65;;
68176;SDS011;56478;50.982;7.032;2023-10-09T09:43:57;14.70;;;7.47;;
68176;SDS011;56478;50.982;7.032;2023-10-09T09:46:46;11.38;;;7.38;;
68176;SDS011;56478;50.982;7.032;2023-10-09T09:49:27;18.13;;;6.80;;
68176;SDS011;56478;50.982;7.032;2023-10-09T09:52:02;10.60;;;6.00;;
68176;SDS011;56478;50.982;7.032;2023-10-09T09:57:27;11.98;;;5.70;;
68176;SDS011;56478;50.982;7.032;2023-10-09T10:03:19;11.70;;;5.60;;
68176;SDS011;56478;50.982;7.032;2023-10-09T10:05:54;10.18;;;5.47;;
68176;SDS011;56478;50.982;7.032;2023-10-09T10:08:40;10.45;;;5.20;;
68176;SDS011;56478;50.982;7.032;2023-10-09T10:11:40;10.02;;;5.07;;
68176;SDS011;56478;50.982;7.032;2023-10-09T10:14:51;9.95;;;5.28;;
68176;SDS011;56478;50.982;7.032;2023-10-09T10:17:15;10.52;;;4.85;;
68176;SDS011;56478;50.982;7.032;2023-10-09T10:22:50;8.38;;;5.20;;
68176;SDS011;56478;50.982;7.032;2023-10-09T10:25:37;10.50;;;5.18;;
68176;SDS011;56478;50.982;7.032;2023-10-09T10:28:17;8.45;;;5.18;;
68176;SDS011;56478;50.982;7.032;2023-10-09T10:31:02;7.53;;;4.97;;
68176;SDS011;56478;50.982;7.032;2023-10-09T10:36:32;9.10;;;5.20;;
68176;SDS011;56478;50.982;7.032;2023-10-09T10:39:04;10.25;;;4.93;;
68176;SDS011;56478;50.982;7.032;2023-10-09T10:41:34;8.52;;;4.40;;
68176;SDS011;56478;50.982;7.032;2023-10-09T10:44:32;9.75;;;4.40;;
68176;SDS011;56478;50.982;7.032;2023-10-09T10:47:05;10.70;;;4.75;;
68176;SDS011;56478;50.982;7.032;2023-10-09T10:49:50;8.02;;;4.20;;
68176;SDS011;56478;50.982;7.032;2023-10-09T10:52:43;9.90;;;4.38;;
68176;SDS011;56478;50.982;7.032;2023-10-09T10:55:30;7.78;;;4.30;;
68176;SDS011;56478;50.982;7.032;2023-10-09T10:58:17;7.75;;;4.28;;
68176;SDS011;56478;50.982;7.032;2023-10-09T11:01:12;7.30;;;4.30;;
68176;SDS011;56478;50.982;7.032;2023-10-09T11:03:38;7.78;;;4.38;;
68176;SDS011;56478;50.982;7.032;2023-10-09T11:06:28;5.50;;;3.72;;
68176;SDS011;56478;50.982;7.032;2023-10-09T11:09:02;11.43;;;4.07;;
68176;SDS011;56478;50.982;7.032;2023-10-09T11:11:55;7.93;;;4.10;;
68176;SDS011;56478;50.982;7.032;2023-10-09T11:14:44;9.15;;;3.80;;
68176;SDS011;56478;50.982;7.032;2023-10-09T11:17:39;9.15;;;4.68;;
68176;SDS011;56478;50.982;7.032;2023-10-09T11:20:06;7.88;;;4.07;;
68176;SDS011;56478;50.982;7.032;2023-10-09T11:22:48;8.10;;;4.03;;
68176;SDS011;56478;50.982;7.032;2023-10-09T11:25:35;6.30;;;4.38;;
68176;SDS011;56478;50.982;7.032;2023-10-09T11:28:25;8.88;;;4.50;;
68176;SDS011;56478;50.982;7.032;2023-10-09T11:31:29;11.65;;;4.07;;
68176;SDS011;56478;50.982;7.032;2023-10-09T11:33:54;8.10;;;4.10;;
68176;SDS011;56478;50.982;7.032;2023-10-09T11:36:21;10.23;;;4.40;;
68176;SDS011;56478;50.982;7.032;2023-10-09T11:38:57;9.32;;;4.00;;
68176;SDS011;56478;50.982;7.032;2023-10-09T11:41:43;7.00;;;4.10;;
68176;SDS011;56478;50.982;7.032;2023-10-09T11:44:09;6.35;;;3.85;;
68176;SDS011;56478;50.982;7.032;2023-10-09T11:47:00;7.63;;;4.40;;
68176;SDS011;56478;50.982;7.032;2023-10-09T11:49:54;5.47;;;4.00;;
68176;SDS011;56478;50.982;7.032;2023-10-09T11:52:27;6.95;;;4.30;;
68176;SDS011;56478;50.982;7.032;2023-10-09T11:55:21;7.15;;;4.13;;
68176;SDS011;56478;50.982;7.032;2023-10-09T11:57:50;9.38;;;4.40;;
68176;SDS011;56478;50.982;7.032;2023-10-09T12:00:16;7.90;;;4.13;;
68176;SDS011;56478;50.982;7.032;2023-10-09T12:02:57;8.23;;;4.15;;
68176;SDS011;56478;50.982;7.032;2023-10-09T12:05:30;5.95;;;3.97;;
68176;SDS011;56478;50.982;7.032;2023-10-09T12:07:59;8.93;;;4.80;;
68176;SDS011;56478;50.982;7.032;2023-10-09T12:10:26;8.47;;;5.50;;
68176;SDS011;56478;50.982;7.032;2023-10-09T12:12:52;8.20;;;5.47;;
68176;SDS011;56478;50.982;7.032;2023-10-09T12:15:19;13.43;;;5.40;;
68176;SDS011;56478;50.982;7.032;2023-10-09T12:17:46;10.48;;;5.20;;
68176;SDS011;56478;50.982;7.032;2023-10-09T12:20:15;8.85;;;5.03;;
68176;SDS011;56478;50.982;7.032;2023-10-09T12:22:59;7.57;;;4.60;;
68176;SDS011;56478;50.982;7.032;2023-10-09T12:25:26;8.10;;;4.93;;
68176;SDS011;56478;50.982;7.032;2023-10-09T12:27:56;9.55;;;5.10;;
68176;SDS011;56478;50.982;7.032;2023-10-09T12:30:22;9.88;;;5.00;;
68176;SDS011;56478;50.982;7.032;2023-10-09T12:32:56;9.18;;;5.00;;
68176;SDS011;56478;50.982;7.032;2023-10-09T12:35:25;8.93;;;5.28;;
68176;SDS011;56478;50.982;7.032;2023-10-09T12:37:52;14.25;;;4.90;;
68176;SDS011;56478;50.982;7.032;2023-10-09T12:40:20;11.38;;;5.20;;
68176;SDS011;56478;50.982;7.032;2023-10-09T12:42:52;11.57;;;4.88;;
68176;SDS011;56478;50.982;7.032;2023-10-09T12:45:18;11.32;;;4.65;;
68176;SDS011;56478;50.982;7.032;2023-10-09T12:47:51;8.93;;;5.03;;
68176;SDS011;56478;50.982;7.032;2023-10-09T12:50:19;7.13;;;4.60;;
68176;SDS011;56478;50.982;7.032;2023-10-09T12:52:53;12.68;;;5.10;;
68176;SDS011;56478;50.982;7.032;2023-10-09T12:55:26;7.70;;;4.70;;
68176;SDS011;56478;50.982;7.032;2023-10-09T12:57:57;8.85;;;4.75;;
68176;SDS011;56478;50.982;7.032;2023-10-09T13:00:26;11.52;;;5.30;;
68176;SDS011;56478;50.982;7.032;2023-10-09T13:02:52;10.05;;;4.97;;
68176;SDS011;56478;50.982;7.032;2023-10-09T13:05:17;7.97;;;4.60;;
68176;SDS011;56478;50.982;7.032;2023-10-09T13:07:52;9.80;;;5.35;;
68176;SDS011;56478;50.982;7.032;2023-10-09T13:10:23;8.90;;;4.82;;
68176;SDS011;56478;50.982;7.032;2023-10-09T13:12:49;9.63;;;5.03;;
68176;SDS011;56478;50.982;7.032;2023-10-09T13:15:20;10.98;;;5.03;;
68176;SDS011;56478;50.982;7.032;2023-10-09T13:17:46;9.07;;;4.70;;
68176;SDS011;56478;50.982;7.032;2023-10-09T13:20:12;8.35;;;4.93;;
68176;SDS011;56478;50.982;7.032;2023-10-09T13:22:38;8.50;;;4.90;;
68176;SDS011;56478;50.982;7.032;2023-10-09T13:25:06;11.85;;;5.40;;
68176;SDS011;56478;50.982;7.032;2023-10-09T13:27:39;9.57;;;4.97;;
68176;SDS011;56478;50.982;7.032;2023-10-09T13:30:05;8.18;;;4.95;;
68176;SDS011;56478;50.982;7.032;2023-10-09T13:32:33;9.18;;;5.00;;
68176;SDS011;56478;50.982;7.032;2023-10-09T13:35:03;7.20;;;4.72;;
68176;SDS011;56478;50.982;7.032;2023-10-09T13:37:30;14.63;;;5.25;;
68176;SDS011;56478;50.982;7.032;2023-10-09T13:40:02;12.73;;;5.75;;
68176;SDS011;56478;50.982;7.032;2023-10-09T13:42:37;9.30;;;5.47;;
68176;SDS011;56478;50.982;7.032;2023-10-09T13:45:03;9.18;;;5.20;;
68176;SDS011;56478;50.982;7.032;2023-10-09T13:47:41;7.75;;;5.60;;
68176;SDS011;56478;50.982;7.032;2023-10-09T13:50:10;7.05;;;5.18;;
68176;SDS011;56478;50.982;7.032;2023-10-09T13:52:35;11.55;;;5.38;;
68176;SDS011;56478;50.982;7.032;2023-10-09T13:55:05;11.50;;;5.82;;
68176;SDS011;56478;50.982;7.032;2023-10-09T13:57:54;12.70;;;5.78;;
68176;SDS011;56478;50.982;7.032;2023-10-09T14:00:22;8.57;;;5.53;;
68176;SDS011;56478;50.982;7.032;2023-10-09T14:03:07;7.88;;;5.38;;
68176;SDS011;56478;50.982;7.032;2023-10-09T14:05:39;10.18;;;5.43;;
68176;SDS011;56478;50.982;7.032;2023-10-09T14:08:25;9.52;;;5.53;;
68176;SDS011;56478;50.982;7.032;2023-10-09T14:10:53;11.48;;;5.57;;
68176;SDS011;56478;50.982;7.032;2023-10-09T14:13:19;11.45;;;5.80;;
68176;SDS011;56478;50.982;7.032;2023-10-09T14:15:53;10.98;;;5.28;;
68176;SDS011;56478;50.982;7.032;2023-10-09T14:18:20;8.50;;;5.78;;
68176;SDS011;56478;50.982;7.032;2023-10-09T14:20:47;10.45;;;5.43;;
68176;SDS011;56478;50.982;7.032;2023-10-09T14:23:12;16.23;;;5.82;;
68176;SDS011;56478;50.982;7.032;2023-10-09T14:25:45;7.88;;;5.22;;
68176;SDS011;56478;50.982;7.032;2023-10-09T14:28:15;10.00;;;5.80;;
68176;SDS011;56478;50.982;7.032;2023-10-09T14:30:44;7.32;;;5.30;;
68176;SDS011;56478;50.982;7.032;2023-10-09T14:33:14;11.52;;;5.47;;
68176;SDS011;56478;50.982;7.032;2023-10-09T14:35:47;17.35;;;5.75;;
68176;SDS011;56478;50.982;7.032;2023-10-09T14:38:13;12.65;;;5.90;;
68176;SDS011;56478;50.982;7.032;2023-10-09T14:40:43;11.25;;;5.43;;
68176;SDS011;56478;50.982;7.032;2023-10-09T14:43:10;7.88;;;5.13;;
68176;SDS011;56478;50.982;7.032;2023-10-09T14:45:47;12.40;;;5.50;;
68176;SDS011;56478;50.982;7.032;2023-10-09T14:48:16;8.75;;;5.82;;
68176;SDS011;56478;50.982;7.032;2023-10-09T14:50:51;8.60;;;5.72;;
68176;SDS011;56478;50.982;7.032;2023-10-09T14:53:18;11.77;;;5.45;;
68176;SDS011;56478;50.982;7.032;2023-10-09T14:55:54;10.73;;;6.00;;
68176;SDS011;56478;50.982;7.032;2023-10-09T14:58:20;9.35;;;5.43;;
68176;SDS011;56478;50.982;7.032;2023-10-09T15:00:50;9.15;;;5.55;;
68176;SDS011;56478;50.982;7.032;2023-10-09T15:03:16;14.48;;;5.60;;
68176;SDS011;56478;50.982;7.032;2023-10-09T15:05:46;9.60;;;4.97;;
68176;SDS011;56478;50.982;7.032;2023-10-09T15:08:13;12.13;;;5.30;;
68176;SDS011;56478;50.982;7.032;2023-10-09T15:10:48;8.10;;;5.03;;
68176;SDS011;56478;50.982;7.032;2023-10-09T15:13:21;9.20;;;5.70;;
68176;SDS011;56478;50.982;7.032;2023-10-09T15:15:53;11.45;;;5.70;;
68176;SDS011;56478;50.982;7.032;2023-10-09T15:18:19;9.60;;;5.85;;
68176;SDS011;56478;50.982;7.032;2023-10-09T15:20:47;9.75;;;5.70;;
68176;SDS011;56478;50.982;7.032;2023-10-09T15:23:17;10.77;;;5.95;;
68176;SDS011;56478;50.982;7.032;2023-10-09T15:25:45;10.40;;;5.70;;
68176;SDS011;56478;50.982;7.032;2023-10-09T15:28:15;10.05;;;5.57;;
68176;SDS011;56478;50.982;7.032;2023-10-09T15:30:49;11.65;;;5.55;;
68176;SDS011;56478;50.982;7.032;2023-10-09T15:33:15;8.40;;;5.45;;
68176;SDS011;56478;50.982;7.032;2023-10-09T15:35:45;13.52;;;5.72;;
68176;SDS011;56478;50.982;7.032;2023-10-09T15:38:17;10.05;;;5.30;;
68176;SDS011;56478;50.982;7.032;2023-10-09T15:40:44;10.70;;;5.70;;
68176;SDS011;56478;50.982;7.032;2023-10-09T15:43:12;11.88;;;5.47;;
68176;SDS011;56478;50.982;7.032;2023-10-09T15:45:42;9.75;;;5.75;;
68176;SDS011;56478;50.982;7.032;2023-10-09T15:48:18;6.82;;;5.40;;
68176;SDS011;56478;50.982;7.032;2023-10-09T15:50:49;9.40;;;5.65;;
68176;SDS011;56478;50.982;7.032;2023-10-09T15:53:20;10.68;;;5.57;;
68176;SDS011;56478;50.982;7.032;2023-10-09T15:56:00;8.68;;;5.38;;
68176;SDS011;56478;50.982;7.032;2023-10-09T15:58:40;12.43;;;5.65;;
68176;SDS011;56478;50.982;7.032;2023-10-09T16:01:10;12.50;;;5.57;;
68176;SDS011;56478;50.982;7.032;2023-10-09T16:06:05;7.82;;;5.38;;
68176;SDS011;56478;50.982;7.032;2023-10-09T16:08:36;8.52;;;5.18;;
68176;SDS011;56478;50.982;7.032;2023-10-09T16:11:21;7.70;;;5.38;;
68176;SDS011;56478;50.982;7.032;2023-10-09T16:13:59;8.27;;;5.30;;
68176;SDS011;56478;50.982;7.032;2023-10-09T16:16:35;10.52;;;5.18;;
68176;SDS011;56478;50.982;7.032;2023-10-09T16:19:27;10.45;;;5.07;;
68176;SDS011;56478;50.982;7.032;2023-10-09T16:21:58;8.88;;;5.53;;
68176;SDS011;56478;50.982;7.032;2023-10-09T16:24:30;8.50;;;5.20;;
68176;SDS011;56478;50.982;7.032;2023-10-09T16:27:00;10.43;;;6.10;;
68176;SDS011;56478;50.982;7.032;2023-10-09T16:29:25;10.55;;;5.70;;
68176;SDS011;56478;50.982;7.032;2023-10-09T16:31:53;11.32;;;5.75;;
68176;SDS011;56478;50.982;7.032;2023-10-09T16:34:20;8.25;;;5.20;;